Time;durP1;ratioP1;P1;durP2;ratioP2;P2;SDS_P1;SDS_P2;PMS_P1;PMS_P2;Temp;Humidity;BMP_temperature;BMP_pressure;BME280_temperature;BME280_humidity;BME280_pressure;Samples;Min_cycle;Max_cycle;Signal;HPM_P1;HPM_P2
2021/11/29 00:01:58;;;;;;;13.20;4.07;;;22.10;52.10;;;;;;5151287;28;20587;-53
2021/11/29 00:04:31;;;;;;;15.07;4.13;;;22.10;52.10;;;;;;5133803;28;20493;-53
2021/11/29 00:07:04;;;;;;;7.78;3.97;;;22.10;52.10;;;;;;5139115;28;20046;-50
2021/11/29 00:09:36;;;;;;;6.80;3.95;;;22.10;52.10;;;;;;5150292;28;20622;-51
2021/11/29 00:12:09;;;;;;;9.90;3.80;;;22.10;52.10;;;;;;5128833;28;20042;-53
2021/11/29 00:14:42;;;;;;;12.45;3.60;;;22.10;52.10;;;;;;5140194;28;20056;-51
2021/11/29 00:17:14;;;;;;;15.65;4.05;;;22.10;52.00;;;;;;5123568;28;20050;-52
2021/11/29 00:19:47;;;;;;;6.68;3.78;;;22.10;52.00;;;;;;5137695;28;20045;-53
2021/11/29 00:22:19;;;;;;;5.55;2.80;;;22.10;52.00;;;;;;5131877;28;20525;-50
2021/11/29 00:24:52;;;;;;;5.32;2.92;;;22.10;51.90;;;;;;5131992;28;20053;-52
2021/11/29 00:27:25;;;;;;;6.32;3.28;;;22.10;51.90;;;;;;5140022;28;20057;-51
2021/11/29 00:29:58;;;;;;;4.90;3.08;;;22.10;51.90;;;;;;5148130;28;20601;-48
2021/11/29 00:32:31;;;;;;;6.72;3.78;;;22.10;52.60;;;;;;5138920;28;20050;-51
2021/11/29 00:35:04;;;;;;;5.97;3.28;;;22.10;52.00;;;;;;5141864;28;20512;-52
2021/11/29 00:37:37;;;;;;;;;;;22.10;51.90;;;;;;5137121;28;20050;-51
2021/11/29 00:40:10;;;;;;;4.93;3.17;;;22.00;51.90;;;;;;5138363;28;19929;-52
2021/11/29 00:42:43;;;;;;;4.55;2.88;;;22.00;52.00;;;;;;5132077;28;20073;-51
2021/11/29 00:45:15;;;;;;;8.23;3.15;;;22.00;52.00;;;;;;5135080;28;20042;-48
2021/11/29 00:47:49;;;;;;;8.05;2.65;;;22.00;52.10;;;;;;5140793;28;20046;-51
2021/11/29 00:50:21;;;;;;;4.20;2.90;;;22.00;52.10;;;;;;5147110;28;20054;-51
2021/11/29 00:52:54;;;;;;;5.30;2.97;;;22.00;52.10;;;;;;5132467;28;20293;-51
2021/11/29 00:55:26;;;;;;;4.32;2.75;;;22.00;52.10;;;;;;5138770;28;20037;-50
2021/11/29 00:57:59;;;;;;;3.95;2.72;;;22.10;52.20;;;;;;5134283;28;20563;-50
2021/11/29 01:00:33;;;;;;;6.13;3.13;;;22.00;52.10;;;;;;5131261;28;20046;-53
2021/11/29 01:03:06;;;;;;;3.95;2.50;;;22.00;52.20;;;;;;5137053;28;20401;-48
2021/11/29 01:05:38;;;;;;;6.30;2.95;;;22.10;52.20;;;;;;5136058;28;20054;-52
2021/11/29 01:08:10;;;;;;;5.13;3.47;;;22.10;52.30;;;;;;5138248;28;20054;-51
2021/11/29 01:10:43;;;;;;;11.90;3.30;;;22.00;52.20;;;;;;5138516;28;20050;-49
2021/11/29 01:13:15;;;;;;;8.38;3.33;;;22.00;52.20;;;;;;5150374;28;20457;-52
2021/11/29 01:15:48;;;;;;;5.22;3.00;;;22.00;52.20;;;;;;5129107;28;20069;-50
2021/11/29 01:18:20;;;;;;;7.28;3.30;;;22.00;52.30;;;;;;5130936;28;20045;-50
2021/11/29 01:20:53;;;;;;;9.07;2.95;;;22.00;52.30;;;;;;5139131;28;20046;-52
2021/11/29 01:23:26;;;;;;;5.00;3.07;;;22.00;52.30;;;;;;5145116;28;20690;-49
2021/11/29 01:25:58;;;;;;;5.53;2.70;;;22.00;52.30;;;;;;5144099;28;20057;-53
2021/11/29 01:28:31;;;;;;;7.38;2.92;;;22.00;52.20;;;;;;5143359;28;20626;-52
2021/11/29 01:31:04;;;;;;;7.63;3.63;;;22.00;52.20;;;;;;5137006;28;20428;-51
2021/11/29 01:33:37;;;;;;;6.93;3.13;;;22.00;52.20;;;;;;5126894;28;20299;-52
2021/11/29 01:36:09;;;;;;;4.10;3.00;;;22.00;52.30;;;;;;5146272;28;20041;-53
2021/11/29 01:38:42;;;;;;;4.85;3.03;;;22.00;52.20;;;;;;5148683;28;20756;-46
2021/11/29 01:41:16;;;;;;;4.10;2.60;;;22.00;52.20;;;;;;5135848;28;20050;-50
2021/11/29 01:43:49;;;;;;;5.70;2.70;;;22.00;52.20;;;;;;5135507;28;20058;-51
2021/11/29 01:46:21;;;;;;;5.05;2.72;;;22.00;52.10;;;;;;5138627;28;20746;-47
2021/11/29 01:48:55;;;;;;;4.30;2.38;;;22.00;52.10;;;;;;5150013;28;20053;-54
2021/11/29 01:51:27;;;;;;;5.18;2.70;;;22.00;52.10;;;;;;5145608;28;20428;-53
2021/11/29 01:54:00;;;;;;;5.72;3.03;;;22.00;52.10;;;;;;5157872;28;20498;-49
2021/11/29 01:56:32;;;;;;;4.35;2.60;;;22.00;52.10;;;;;;5136377;28;20057;-54
2021/11/29 01:59:05;;;;;;;7.15;2.78;;;22.00;52.10;;;;;;5119360;28;20474;-53
2021/11/29 02:01:38;;;;;;;6.63;2.65;;;22.00;52.10;;;;;;5136436;28;20205;-52
2021/11/29 02:04:12;;;;;;;4.72;2.28;;;22.00;52.10;;;;;;5143639;28;20048;-52
2021/11/29 02:06:44;;;;;;;;;;;22.00;52.10;;;;;;5141855;28;20046;-50
2021/11/29 02:09:17;;;;;;;6.13;2.50;;;21.90;52.00;;;;;;5133125;28;19921;-52
2021/11/29 02:11:54;;;;;;;4.20;2.53;;;22.00;52.10;;;;;;5133971;28;20046;-51
2021/11/29 02:14:29;;;;;;;6.40;3.20;;;22.00;52.10;;;;;;5135697;28;20049;-51
2021/11/29 02:17:01;;;;;;;4.57;2.85;;;22.00;52.00;;;;;;5153494;28;20414;-50
2021/11/29 02:19:42;;;;;;;5.82;2.72;;;22.00;52.80;;;;;;5140923;28;21102;-52
2021/11/29 02:22:15;;;;;;;4.28;2.65;;;22.00;52.00;;;;;;5153187;28;20057;-52
2021/11/29 02:24:47;;;;;;;2.78;2.47;;;22.00;52.00;;;;;;5133038;28;20565;-47
2021/11/29 02:27:20;;;;;;;7.93;3.28;;;22.00;51.90;;;;;;5141197;28;20049;-49
2021/11/29 02:29:55;;;;;;;4.55;2.30;;;22.00;51.90;;;;;;5132673;28;20171;-51
2021/11/29 02:32:28;;;;;;;4.35;2.90;;;22.00;51.90;;;;;;5132901;28;20639;-52
2021/11/29 02:35:00;;;;;;;4.63;2.55;;;22.00;51.90;;;;;;5141362;28;20042;-51
2021/11/29 02:37:33;;;;;;;3.38;2.22;;;22.00;51.90;;;;;;5157403;28;20042;-52
2021/11/29 02:40:06;;;;;;;4.38;2.58;;;22.00;51.90;;;;;;5143615;28;20059;-50
2021/11/29 02:42:39;;;;;;;3.40;2.25;;;22.00;51.90;;;;;;5139640;28;20046;-52
2021/11/29 02:45:12;;;;;;;3.83;2.10;;;22.00;52.00;;;;;;5133078;28;20521;-46
2021/11/29 02:47:44;;;;;;;3.72;2.63;;;21.90;52.60;;;;;;5128214;28;20045;-50
2021/11/29 02:50:17;;;;;;;4.70;2.20;;;21.90;52.00;;;;;;5153007;28;20050;-51
2021/11/29 02:52:49;;;;;;;5.65;2.70;;;21.90;52.00;;;;;;5150391;28;20046;-49
2021/11/29 02:55:21;;;;;;;5.43;2.20;;;21.90;52.00;;;;;;5154175;28;20057;-46
2021/11/29 02:57:54;;;;;;;3.88;2.08;;;21.90;52.00;;;;;;5141279;28;20074;-44
2021/11/29 03:00:26;;;;;;;4.20;2.30;;;21.90;52.10;;;;;;5144564;28;20072;-50
2021/11/29 03:03:07;;;;;;;5.13;2.53;;;21.90;52.10;;;;;;5158608;28;20045;-46
2021/11/29 03:05:40;;;;;;;7.68;2.33;;;21.90;52.20;;;;;;5172652;28;21006;-47
2021/11/29 03:08:12;;;;;;;3.53;2.30;;;21.90;52.20;;;;;;5152365;28;20039;-50
2021/11/29 03:10:47;;;;;;;5.43;2.25;;;21.90;52.20;;;;;;5139744;28;20050;-50
2021/11/29 03:13:19;;;;;;;7.78;2.33;;;21.90;52.20;;;;;;5156315;28;20057;-45
2021/11/29 03:15:51;;;;;;;4.35;2.33;;;21.90;52.20;;;;;;5155871;28;20056;-46
2021/11/29 03:18:32;;;;;;;8.45;2.30;;;21.90;52.20;;;;;;5151008;28;20048;-53
2021/11/29 03:21:06;;;;;;;7.82;2.20;;;21.90;52.60;;;;;;5148899;28;20686;-47
2021/11/29 03:23:38;;;;;;;3.38;2.17;;;21.90;52.30;;;;;;5162917;28;20061;-46
2021/11/29 03:26:15;;;;;;;5.28;2.63;;;21.90;52.20;;;;;;5148478;28;20053;-46
2021/11/29 03:28:53;;;;;;;4.90;2.58;;;21.90;52.20;;;;;;5154679;28;20061;-46
2021/11/29 03:31:28;;;;;;;5.35;2.42;;;21.90;52.20;;;;;;5135255;28;20066;-48
2021/11/29 03:34:06;;;;;;;5.38;2.45;;;21.90;52.20;;;;;;5135611;28;20046;-49
2021/11/29 03:36:40;;;;;;;4.18;2.03;;;21.90;52.20;;;;;;5147305;28;20041;-49
2021/11/29 03:39:20;;;;;;;5.32;2.05;;;21.90;52.20;;;;;;5152308;28;20053;-46
2021/11/29 03:41:55;;;;;;;5.38;2.83;;;21.90;52.20;;;;;;5138865;28;20406;-47
2021/11/29 03:44:27;;;;;;;5.18;2.30;;;21.90;52.20;;;;;;5134459;28;20080;-52
2021/11/29 03:47:00;;;;;;;9.10;3.13;;;21.90;52.20;;;;;;5141245;28;20875;-52
2021/11/29 03:49:33;;;;;;;3.88;2.30;;;21.90;52.10;;;;;;5143550;28;20057;-47
2021/11/29 03:52:06;;;;;;;3.43;1.97;;;21.80;52.00;;;;;;5136506;28;20041;-52
2021/11/29 03:54:38;;;;;;;3.07;2.03;;;21.80;52.10;;;;;;5157049;28;20054;-53
2021/11/29 03:57:11;;;;;;;2.85;2.17;;;21.80;51.40;;;;;;5145691;28;20046;-50
2021/11/29 03:59:43;;;;;;;3.07;2.00;;;21.80;52.00;;;;;;5132573;28;20052;-49
2021/11/29 04:02:16;;;;;;;3.45;2.28;;;21.80;52.10;;;;;;5130104;28;20041;-48
2021/11/29 04:04:48;;;;;;;3.37;2.23;;;21.80;52.00;;;;;;5146622;28;20054;-50
2021/11/29 04:07:21;;;;;;;4.20;2.10;;;21.80;51.90;;;;;;5132622;28;20058;-52
2021/11/29 04:09:53;;;;;;;3.00;1.92;;;21.80;51.90;;;;;;5153220;28;20049;-48
2021/11/29 04:12:26;;;;;;;3.35;2.53;;;21.80;51.90;;;;;;5198571;23;20052;-48
2021/11/29 04:14:58;;;;;;;3.92;2.28;;;21.80;51.90;;;;;;5176268;28;20327;-50
2021/11/29 04:17:31;;;;;;;3.75;2.20;;;21.80;52.00;;;;;;5199050;28;20085;-52
2021/11/29 04:20:03;;;;;;;2.72;2.10;;;21.80;52.00;;;;;;5198436;28;26360;-46
2021/11/29 04:22:37;;;;;;;4.97;3.13;;;21.80;51.90;;;;;;5198339;28;20067;-45
2021/11/29 04:25:11;;;;;;;;;;;21.80;52.00;;;;;;5205634;28;20041;-48
2021/11/29 04:27:45;;;;;;;2.45;1.95;;;21.80;52.00;;;;;;5175650;28;20335;-49
2021/11/29 04:30:22;;;;;;;5.70;2.03;;;21.80;52.00;;;;;;5196737;28;20052;-50
2021/11/29 04:32:57;;;;;;;3.63;2.10;;;21.80;52.00;;;;;;5198622;28;20059;-53
2021/11/29 04:35:30;;;;;;;3.28;2.08;;;21.80;51.90;;;;;;5181027;28;20051;-58
2021/11/29 04:38:03;;;;;;;3.08;2.03;;;21.80;51.90;;;;;;5193819;28;20036;-51
2021/11/29 04:40:36;;;;;;;4.35;2.17;;;21.80;51.90;;;;;;5191867;28;20421;-46
2021/11/29 04:43:09;;;;;;;5.47;2.10;;;21.80;51.90;;;;;;5182939;28;20057;-52
2021/11/29 04:45:41;;;;;;;7.45;2.13;;;21.80;51.90;;;;;;5188349;28;20081;-49
2021/11/29 04:48:15;;;;;;;3.60;2.08;;;21.80;51.80;;;;;;5175178;28;20052;-51
2021/11/29 04:50:47;;;;;;;4.75;1.77;;;21.80;51.80;;;;;;5191399;28;21120;-56
2021/11/29 04:53:20;;;;;;;3.63;2.13;;;21.80;51.90;;;;;;5192015;28;20083;-50
2021/11/29 04:55:52;;;;;;;6.03;2.25;;;21.80;51.90;;;;;;5185708;28;20551;-49
2021/11/29 04:58:25;;;;;;;2.70;2.00;;;21.80;52.00;;;;;;5183507;28;20041;-56
2021/11/29 05:00:58;;;;;;;2.95;2.15;;;21.80;52.00;;;;;;5187261;28;20056;-46
2021/11/29 05:03:30;;;;;;;3.70;2.13;;;21.80;52.10;;;;;;5158877;28;20041;-47
2021/11/29 05:06:03;;;;;;;2.53;1.98;;;21.80;52.20;;;;;;5192983;28;21128;-56
2021/11/29 05:08:35;;;;;;;5.22;3.45;;;21.80;52.20;;;;;;5181396;28;20067;-46
2021/11/29 05:11:08;;;;;;;3.58;1.98;;;21.80;52.40;;;;;;5197235;28;20613;-58
2021/11/29 05:13:40;;;;;;;4.90;2.13;;;21.80;52.40;;;;;;5184258;28;20119;-54
2021/11/29 05:16:13;;;;;;;3.33;2.03;;;21.80;52.40;;;;;;5178558;28;20052;-52
2021/11/29 05:18:45;;;;;;;9.52;2.40;;;21.80;52.40;;;;;;5198268;28;22500;-51
2021/11/29 05:21:18;;;;;;;4.43;2.40;;;21.80;52.50;;;;;;5192549;28;20393;-46
2021/11/29 05:23:51;;;;;;;4.82;2.40;;;21.80;52.50;;;;;;5195945;28;20052;-55
2021/11/29 05:26:25;;;;;;;9.80;2.38;;;21.80;52.60;;;;;;5202261;28;20047;-48
2021/11/29 05:29:00;;;;;;;4.55;2.15;;;21.80;52.60;;;;;;5198069;28;20049;-49
2021/11/29 05:31:32;;;;;;;4.95;2.13;;;21.80;52.70;;;;;;5184318;28;20048;-46
2021/11/29 05:34:05;;;;;;;4.15;2.05;;;21.80;52.80;;;;;;5187719;28;20047;-59
2021/11/29 05:36:38;;;;;;;5.83;2.13;;;21.80;52.80;;;;;;5169301;28;20609;-53
2021/11/29 05:39:10;;;;;;;8.15;2.30;;;21.80;52.90;;;;;;5199806;28;20616;-52
2021/11/29 05:41:47;;;;;;;5.38;2.38;;;21.80;52.90;;;;;;5195492;28;20048;-50
2021/11/29 05:44:19;;;;;;;3.67;2.00;;;21.80;52.80;;;;;;5194049;28;20072;-53
2021/11/29 05:46:52;;;;;;;9.95;2.55;;;21.90;52.90;;;;;;5190991;28;20044;-57
2021/11/29 05:49:24;;;;;;;10.25;2.78;;;21.90;52.90;;;;;;5195061;28;20411;-49
2021/11/29 05:51:58;;;;;;;5.00;2.20;;;21.90;52.90;;;;;;5186221;28;20048;-50
2021/11/29 05:54:30;;;;;;;7.00;3.10;;;21.90;52.90;;;;;;5196853;28;20041;-45
2021/11/29 05:57:03;;;;;;;10.25;2.75;;;21.90;52.90;;;;;;5186842;28;20147;-57
2021/11/29 05:59:35;;;;;;;11.07;2.90;;;21.90;52.90;;;;;;5189914;28;20052;-49
2021/11/29 06:02:08;;;;;;;11.52;2.45;;;21.90;52.90;;;;;;5182845;28;20056;-55
2021/11/29 06:04:40;;;;;;;14.17;3.23;;;22.00;52.90;;;;;;5187074;28;20051;-48
2021/11/29 06:07:13;;;;;;;8.35;2.50;;;22.00;52.70;;;;;;5169826;28;20045;-58
2021/11/29 06:09:45;;;;;;;9.82;2.60;;;22.00;52.70;;;;;;5167154;28;20057;-47
2021/11/29 06:12:18;;;;;;;16.40;3.30;;;22.00;52.80;;;;;;5170984;28;20045;-51
2021/11/29 06:14:51;;;;;;;26.92;3.38;;;22.00;52.80;;;;;;5169422;28;20060;-54
2021/11/29 06:17:23;;;;;;;15.80;2.80;;;22.10;52.70;;;;;;5176377;28;20378;-58
2021/11/29 06:19:56;;;;;;;15.73;2.95;;;22.00;52.50;;;;;;5193082;28;20053;-52
2021/11/29 06:22:28;;;;;;;12.65;3.50;;;22.10;52.50;;;;;;5195979;28;21953;-57
2021/11/29 06:25:02;;;;;;;14.52;3.70;;;22.10;52.40;;;;;;5201877;28;20597;-49
2021/11/29 06:27:35;;;;;;;12.02;3.55;;;22.10;53.00;;;;;;5207663;28;20052;-54
2021/11/29 06:30:08;;;;;;;18.33;3.60;;;22.10;52.30;;;;;;5191446;28;20053;-50
2021/11/29 06:32:41;;;;;;;11.77;3.25;;;22.10;52.20;;;;;;5209754;28;20052;-52
2021/11/29 06:35:14;;;;;;;16.45;3.65;;;22.10;52.10;;;;;;5206617;28;20126;-53
2021/11/29 06:37:54;;;;;;;10.90;4.15;;;22.10;52.10;;;;;;5192067;28;21280;-49
2021/11/29 06:40:28;;;;;;;9.90;3.75;;;22.10;52.00;;;;;;5193521;28;20052;-50
2021/11/29 06:43:01;;;;;;;21.25;4.88;;;22.10;51.90;;;;;;5212402;28;20037;-54
2021/11/29 06:45:34;;;;;;;18.00;3.90;;;22.10;51.90;;;;;;5217658;28;20045;-48
2021/11/29 06:48:06;;;;;;;15.07;3.60;;;22.10;51.80;;;;;;5217815;28;20053;-48
2021/11/29 06:50:39;;;;;;;17.90;3.75;;;22.10;51.80;;;;;;5199631;28;20056;-53
2021/11/29 06:53:12;;;;;;;18.80;3.83;;;22.10;51.70;;;;;;5210897;28;20466;-58
2021/11/29 06:55:46;;;;;;;11.35;3.60;;;22.10;51.70;;;;;;5202316;28;20052;-51
2021/11/29 06:58:19;;;;;;;8.52;3.20;;;22.10;51.70;;;;;;5206770;28;20040;-52
2021/11/29 07:00:52;;;;;;;11.88;4.03;;;22.10;51.60;;;;;;5183586;28;20053;-51
2021/11/29 07:03:25;;;;;;;11.35;3.55;;;22.10;51.60;;;;;;5210907;28;20041;-53
2021/11/29 07:05:57;;;;;;;10.27;3.95;;;22.10;51.50;;;;;;5197817;28;20048;-54
2021/11/29 07:08:30;;;;;;;10.98;3.20;;;22.10;51.50;;;;;;5208998;28;21192;-53
2021/11/29 07:11:02;;;;;;;10.02;3.65;;;22.10;51.40;;;;;;5208289;28;20040;-55
2021/11/29 07:13:36;;;;;;;15.10;3.60;;;22.10;51.30;;;;;;5184586;28;20391;-56
2021/11/29 07:16:08;;;;;;;7.55;3.28;;;22.10;51.30;;;;;;5213813;28;20045;-50
2021/11/29 07:18:41;;;;;;;10.55;3.53;;;22.10;51.30;;;;;;5216481;28;20045;-51
2021/11/29 07:21:14;;;;;;;8.98;3.50;;;22.10;51.20;;;;;;5216385;28;20048;-52
2021/11/29 07:23:46;;;;;;;10.30;3.67;;;22.10;51.20;;;;;;5184652;28;20068;-56
2021/11/29 07:26:19;;;;;;;10.35;3.53;;;22.10;51.20;;;;;;5211194;28;20155;-50
2021/11/29 07:28:51;;;;;;;8.85;3.53;;;22.10;51.20;;;;;;5217234;28;20460;-51
2021/11/29 07:31:23;;;;;;;13.52;3.10;;;22.10;51.10;;;;;;5192836;28;20050;-51
2021/11/29 07:33:56;;;;;;;8.00;2.95;;;22.10;51.10;;;;;;5216123;28;20045;-51
2021/11/29 07:36:28;;;;;;;12.25;3.63;;;22.10;51.10;;;;;;5215822;28;20040;-51
2021/11/29 07:39:01;;;;;;;12.00;4.32;;;22.10;51.10;;;;;;5196143;28;20532;-56
2021/11/29 07:41:34;;;;;;;8.75;3.45;;;22.10;51.10;;;;;;5216893;28;20045;-50
2021/11/29 07:44:06;;;;;;;8.60;3.10;;;22.10;51.00;;;;;;5218521;28;20044;-51
2021/11/29 07:46:39;;;;;;;8.55;3.08;;;22.10;51.10;;;;;;5205732;28;20472;-48
2021/11/29 07:49:11;;;;;;;5.80;2.97;;;22.10;51.00;;;;;;5212095;28;20047;-51
2021/11/29 07:51:44;;;;;;;10.98;3.50;;;22.10;51.00;;;;;;5198198;28;20060;-49
2021/11/29 07:54:16;;;;;;;8.23;3.20;;;22.10;51.00;;;;;;5214074;28;20313;-57
2021/11/29 07:56:49;;;;;;;6.40;3.13;;;22.10;50.90;;;;;;5219631;28;20053;-51
2021/11/29 07:59:21;;;;;;;6.68;2.88;;;22.10;50.90;;;;;;5201268;28;20048;-53
2021/11/29 08:02:14;;;;;;;7.65;3.03;;;22.10;50.90;;;;;;5220444;28;20049;-50
2021/11/29 08:04:47;;;;;;;;;;;22.10;50.80;;;;;;5222820;28;20049;-54
2021/11/29 08:07:20;;;;;;;8.70;3.20;;;22.10;50.80;;;;;;5218053;28;20459;-53
2021/11/29 08:09:53;;;;;;;9.63;3.38;;;22.10;50.90;;;;;;5197075;28;20052;-51
2021/11/29 08:12:25;;;;;;;6.00;2.90;;;22.10;50.80;;;;;;5215092;28;20179;-49
2021/11/29 08:14:58;;;;;;;5.60;2.88;;;22.10;50.80;;;;;;5217403;28;20618;-47
2021/11/29 08:17:30;;;;;;;9.77;2.80;;;22.10;50.70;;;;;;5217055;28;20037;-51
2021/11/29 08:20:04;;;;;;;4.40;2.92;;;22.10;50.80;;;;;;5218257;28;20036;-56
2021/11/29 08:22:36;;;;;;;4.78;2.60;;;22.10;50.70;;;;;;5216979;28;20047;-53
2021/11/29 08:25:09;;;;;;;4.68;2.58;;;22.10;50.70;;;;;;5219557;28;20040;-50
2021/11/29 08:27:42;;;;;;;5.90;2.55;;;22.10;50.60;;;;;;5219014;28;20504;-50
2021/11/29 08:30:17;;;;;;;6.22;2.78;;;22.10;50.60;;;;;;5217256;28;20044;-49
2021/11/29 08:32:50;;;;;;;7.85;2.90;;;22.10;50.70;;;;;;5188197;28;20056;-49
2021/11/29 08:35:23;;;;;;;8.32;2.67;;;22.10;50.70;;;;;;5218832;28;20045;-52
2021/11/29 08:37:58;;;;;;;5.88;2.65;;;22.10;50.60;;;;;;5203652;28;20393;-47
2021/11/29 08:40:34;;;;;;;10.18;3.10;;;22.10;50.70;;;;;;5224109;28;20028;-50
2021/11/29 08:43:09;;;;;;;5.00;2.80;;;22.10;50.60;;;;;;5221198;28;20037;-51
2021/11/29 08:45:43;;;;;;;4.18;2.70;;;22.10;50.60;;;;;;5218054;28;20048;-48
2021/11/29 08:48:16;;;;;;;;;;;22.10;50.60;;;;;;5220085;28;20028;-50
2021/11/29 08:50:51;;;;;;;6.00;2.22;;;22.10;50.60;;;;;;5210710;28;19929;-54
2021/11/29 08:53:26;;;;;;;4.80;2.47;;;22.10;50.70;;;;;;5218196;28;20056;-49
2021/11/29 08:55:59;;;;;;;6.05;2.60;;;22.10;50.60;;;;;;5214060;28;20059;-55
2021/11/29 08:58:31;;;;;;;5.13;2.83;;;22.10;50.60;;;;;;5217182;28;20984;-49
2021/11/29 09:01:04;;;;;;;7.05;2.97;;;22.10;50.60;;;;;;5219400;28;20049;-52
2021/11/29 09:03:37;;;;;;;4.75;2.28;;;22.10;50.60;;;;;;5218041;28;20044;-51
2021/11/29 09:06:10;;;;;;;4.40;2.22;;;22.10;50.50;;;;;;5215745;28;20382;-54
2021/11/29 09:08:43;;;;;;;5.85;2.53;;;22.10;50.50;;;;;;5206645;28;20051;-48
2021/11/29 09:11:16;;;;;;;8.02;2.65;;;22.10;50.50;;;;;;5214554;28;20063;-54
2021/11/29 09:13:48;;;;;;;5.15;2.15;;;22.10;50.60;;;;;;5219565;28;20055;-51
2021/11/29 09:16:21;;;;;;;5.43;2.40;;;22.20;50.60;;;;;;5218554;28;20063;-55
2021/11/29 09:18:54;;;;;;;4.60;2.75;;;22.20;50.50;;;;;;5217455;28;20041;-51
2021/11/29 09:21:26;;;;;;;3.05;2.00;;;22.10;50.50;;;;;;5215804;28;20059;-54
2021/11/29 09:24:03;;;;;;;3.55;2.05;;;22.20;50.50;;;;;;5220122;28;20044;-49
2021/11/29 09:26:36;;;;;;;2.87;2.20;;;22.20;50.50;;;;;;5216081;28;20044;-53
2021/11/29 09:29:14;;;;;;;5.55;2.20;;;22.20;50.60;;;;;;5191466;28;20295;-51
2021/11/29 09:31:47;;;;;;;5.15;2.92;;;22.20;50.50;;;;;;5219025;28;20040;-50
2021/11/29 09:34:19;;;;;;;5.90;2.28;;;22.20;50.50;;;;;;5220342;28;20044;-52
2021/11/29 09:36:52;;;;;;;7.32;2.70;;;22.20;50.50;;;;;;5213789;28;20067;-51
2021/11/29 09:39:24;;;;;;;3.28;2.30;;;22.20;50.40;;;;;;5220471;28;20044;-51
2021/11/29 09:41:57;;;;;;;4.15;2.08;;;22.20;50.40;;;;;;5222278;28;20040;-55
2021/11/29 09:44:29;;;;;;;5.00;2.20;;;22.30;50.40;;;;;;5207070;28;20051;-50
2021/11/29 09:47:02;;;;;;;3.72;1.83;;;22.30;50.30;;;;;;5219492;28;20041;-47
2021/11/29 09:49:34;;;;;;;3.53;2.33;;;22.30;50.30;;;;;;5214562;28;20420;-47
2021/11/29 09:52:07;;;;;;;3.75;2.45;;;22.30;50.30;;;;;;5216794;28;20037;-47
2021/11/29 09:54:43;;;;;;;3.33;2.17;;;22.30;50.30;;;;;;5218776;28;20068;-46
2021/11/29 09:57:17;;;;;;;6.47;2.28;;;22.30;50.20;;;;;;5219077;28;20052;-50
2021/11/29 09:59:49;;;;;;;;;;;22.30;50.90;;;;;;5221217;28;20071;-51
2021/11/29 10:02:22;;;;;;;3.90;2.22;;;22.20;50.20;;;;;;5223412;28;20600;-50
2021/11/29 10:04:54;;;;;;;3.50;2.25;;;22.20;50.30;;;;;;5223308;28;20041;-47
2021/11/29 10:07:39;;;;;;;4.35;1.95;;;22.30;50.30;;;;;;5223341;28;20037;-50
2021/11/29 10:10:24;;;;;;;3.38;2.47;;;22.30;50.30;;;;;;5222194;28;20051;-53
2021/11/29 10:13:01;;;;;;;3.70;2.15;;;22.30;50.30;;;;;;5219444;23;20044;-71
2021/11/29 10:15:37;;;;;;;6.32;2.20;;;22.30;50.30;;;;;;5205852;28;20045;-70
2021/11/29 10:18:21;;;;;;;4.30;2.10;;;22.30;50.30;;;;;;5213516;28;20061;-71
2021/11/29 10:21:06;;;;;;;2.90;1.95;;;22.20;50.30;;;;;;5206071;28;20440;-71
2021/11/29 10:23:51;;;;;;;2.47;1.90;;;22.30;50.30;;;;;;5208482;28;20048;-71
2021/11/29 10:26:27;;;;;;;2.72;2.10;;;22.20;50.30;;;;;;5194836;28;20053;-72
2021/11/29 10:29:10;;;;;;;3.05;1.90;;;22.20;50.30;;;;;;5206286;28;20043;-71
2021/11/29 10:31:51;;;;;;;4.20;2.40;;;22.30;50.30;;;;;;5208406;28;20404;-70
2021/11/29 10:34:28;;;;;;;3.05;2.00;;;22.30;50.30;;;;;;5207311;28;20041;-71
2021/11/29 10:37:06;;;;;;;5.35;2.03;;;22.30;50.20;;;;;;5205304;28;20045;-71
2021/11/29 10:39:44;;;;;;;2.97;2.05;;;22.30;50.20;;;;;;5202566;28;20049;-71
2021/11/29 10:42:17;;;;;;;5.05;2.28;;;22.30;50.10;;;;;;5205614;28;20416;-71
2021/11/29 10:44:53;;;;;;;2.28;2.00;;;22.30;50.10;;;;;;5203391;28;20046;-71
2021/11/29 10:47:27;;;;;;;2.63;1.65;;;22.30;50.10;;;;;;5194282;28;20053;-71
2021/11/29 10:50:04;;;;;;;2.55;1.92;;;22.30;50.10;;;;;;5195469;28;20313;-71
2021/11/29 10:52:36;;;;;;;4.55;2.03;;;22.30;50.10;;;;;;5197515;28;20072;-71
2021/11/29 10:55:10;;;;;;;3.13;1.77;;;22.30;50.10;;;;;;5156892;28;20056;-71
2021/11/29 10:57:48;;;;;;;5.35;2.40;;;22.30;50.10;;;;;;5177467;28;20459;-70
2021/11/29 11:00:20;;;;;;;2.95;2.40;;;22.30;50.10;;;;;;5169967;28;20068;-71
2021/11/29 11:03:01;;;;;;;3.30;2.10;;;22.30;50.10;;;;;;5195430;28;20688;-70
2021/11/29 11:05:57;;;;;;;4.50;2.33;;;22.30;50.10;;;;;;5183704;28;20041;-71
2021/11/29 11:08:35;;;;;;;3.10;1.92;;;22.30;50.00;;;;;;5175534;28;20052;-70
2021/11/29 11:11:27;;;;;;;6.32;1.80;;;22.30;50.10;;;;;;5176487;28;20060;-71
2021/11/29 11:14:04;;;;;;;3.08;1.70;;;22.30;50.00;;;;;;5174971;28;20076;-70
2021/11/29 11:17:03;;;;;;;5.72;2.40;;;22.30;50.00;;;;;;5178455;28;20443;-70
2021/11/29 11:19:39;;;;;;;5.10;2.28;;;22.30;49.90;;;;;;5156921;28;20060;-70
2021/11/29 11:22:33;;;;;;;3.92;2.22;;;22.30;49.90;;;;;;5176715;28;20060;-69
2021/11/29 11:25:15;;;;;;;4.70;1.92;;;22.30;49.90;;;;;;5170240;28;20056;-70
2021/11/29 11:27:58;;;;;;;3.17;2.00;;;22.40;49.90;;;;;;5167722;28;20544;-71
2021/11/29 11:30:35;;;;;;;5.13;2.00;;;22.40;49.80;;;;;;5181775;28;20408;-69
2021/11/29 11:33:11;;;;;;;2.13;1.90;;;22.40;49.80;;;;;;5194149;28;20048;-70
2021/11/29 11:35:49;;;;;;;3.72;2.28;;;22.50;49.70;;;;;;5206236;28;20064;-70
2021/11/29 11:38:25;;;;;;;2.90;2.10;;;22.50;49.60;;;;;;5186642;28;20049;-70
2021/11/29 11:41:01;;;;;;;3.35;1.95;;;22.60;49.60;;;;;;5203196;28;20041;-70
2021/11/29 11:43:35;;;;;;;3.30;2.15;;;22.60;49.50;;;;;;5173936;28;20052;-71
2021/11/29 11:46:12;;;;;;;2.55;1.63;;;22.70;49.50;;;;;;5173131;28;20055;-69
2021/11/29 11:48:44;;;;;;;3.25;1.92;;;22.70;49.40;;;;;;5186667;28;20045;-71
2021/11/29 11:51:17;;;;;;;4.18;2.00;;;22.80;49.50;;;;;;5197471;28;20072;-71
2021/11/29 11:53:50;;;;;;;2.55;1.73;;;22.80;49.40;;;;;;5214346;28;20052;-71
2021/11/29 11:56:22;;;;;;;6.00;1.90;;;22.90;49.50;;;;;;5192799;28;20049;-70
2021/11/29 11:59:02;;;;;;;2.53;1.80;;;22.90;49.40;;;;;;5202415;28;20056;-71
2021/11/29 12:01:39;;;;;;;5.82;2.10;;;22.90;49.30;;;;;;5167153;28;20045;-70
2021/11/29 12:04:14;;;;;;;2.95;1.52;;;22.90;49.30;;;;;;5180142;28;20189;-72
2021/11/29 12:06:49;;;;;;;3.60;1.90;;;22.90;49.20;;;;;;5184173;28;20111;-71
2021/11/29 12:09:31;;;;;;;3.80;2.20;;;23.00;49.30;;;;;;5187357;28;20060;-71
2021/11/29 12:12:05;;;;;;;3.42;2.15;;;22.90;49.30;;;;;;5189715;28;20112;-72
2021/11/29 12:14:38;;;;;;;3.75;2.17;;;22.90;49.40;;;;;;5160804;28;22280;-71
2021/11/29 12:17:21;;;;;;;3.30;2.30;;;22.90;49.50;;;;;;5170177;28;20386;-70
2021/11/29 12:20:09;;;;;;;2.17;1.67;;;22.90;49.50;;;;;;5195858;28;20045;-70
2021/11/29 12:22:41;;;;;;;3.75;2.63;;;22.80;49.40;;;;;;5166598;28;20036;-69
2021/11/29 12:25:24;;;;;;;2.47;1.80;;;22.80;49.40;;;;;;5168697;28;20053;-71
2021/11/29 12:28:04;;;;;;;3.00;2.10;;;22.80;49.40;;;;;;5161343;28;20041;-69
2021/11/29 12:30:37;;;;;;;5.40;2.10;;;22.70;49.30;;;;;;5149953;28;21458;-70
2021/11/29 12:33:12;;;;;;;4.60;2.15;;;22.70;49.30;;;;;;5152379;28;20055;-70
2021/11/29 12:35:58;;;;;;;3.33;2.35;;;22.70;49.20;;;;;;5141576;28;20055;-71
2021/11/29 12:38:46;;;;;;;3.15;2.25;;;22.70;49.20;;;;;;5158708;28;20048;-69
2021/11/29 12:41:38;;;;;;;4.85;2.35;;;22.70;49.20;;;;;;5161566;28;20041;-70
2021/11/29 12:44:13;;;;;;;4.70;1.83;;;22.70;49.20;;;;;;5131822;28;20045;-71
2021/11/29 12:46:46;;;;;;;2.95;2.10;;;22.70;49.20;;;;;;5154916;28;20049;-70
2021/11/29 12:49:37;;;;;;;2.53;2.13;;;22.70;49.30;;;;;;5181912;28;20283;-71
2021/11/29 12:52:47;;;;;;;5.57;2.35;;;22.70;49.30;;;;;;5160112;28;20056;-72
2021/11/29 12:55:19;;;;;;;5.40;2.42;;;22.60;49.40;;;;;;5173899;28;20423;-74
2021/11/29 12:58:07;;;;;;;3.53;1.70;;;22.60;49.50;;;;;;5166273;28;20342;-72
2021/11/29 13:00:42;;;;;;;5.50;1.92;;;22.60;49.80;;;;;;5167346;28;20045;-73
2021/11/29 13:03:17;;;;;;;8.02;2.13;;;22.60;49.90;;;;;;5151374;28;20323;-74
2021/11/29 13:05:55;;;;;;;7.00;1.70;;;22.60;50.30;;;;;;5155859;28;20053;-72
2021/11/29 13:08:27;;;;;;;2.85;1.80;;;22.60;50.40;;;;;;5126779;28;20362;-71
2021/11/29 13:11:24;;;;;;;3.92;2.00;;;22.60;50.40;;;;;;5152741;28;20060;-73
2021/11/29 13:14:22;;;;;;;2.47;1.60;;;22.60;50.50;;;;;;5148410;28;20034;-73
2021/11/29 13:16:57;;;;;;;6.60;2.78;;;22.60;50.70;;;;;;5165984;28;20056;-72
2021/11/29 13:19:59;;;;;;;3.92;2.00;;;22.60;50.70;;;;;;5175101;28;20316;-75
2021/11/29 13:22:31;;;;;;;7.32;1.80;;;22.60;50.70;;;;;;5147376;28;20642;-73
2021/11/29 13:25:04;;;;;;;8.32;2.40;;;22.60;50.70;;;;;;5164106;28;20044;-72
2021/11/29 13:27:38;;;;;;;6.38;2.47;;;22.60;51.10;;;;;;5173317;28;20068;-71